Etusivu
METAR-TAF:

METAR-TAF

Lentoasemat :

Antananarivo, Madagaskar

Leveyspiiri: 18-48S, Pituuspiiri: 047-29E, korkeus merenpinnasta: 1279 m

Tämänhetkinen sää

Tämä raportti tehtiin 30 minuuttia sitten, kello 03.00 UTC
Tuuli 2 kn eri suunnista
Lämpötila 17°C
Kosteus 88%
Ilmanpaine 1021 hPa
Näkyvyys 10 km tai enemmän
Muutamia pilviä 1700 ft:n korkeudessa

METAR: FMMI 210300Z VRB02KT 9999 FEW017 17/15 Q1021 NOSIG

Aika: 06:30 (03:30 UTC)

Sääennuste

Tämä raportti tehtiin 4 tuntia ja 30 minuuttia sitten, kello 23.00 UTC
Ennuste voimassa 21. päivästä klo 00 UTC - 22. päivään klo 06 UTC
Tuuli 6 kn idästä
Näkyvyys 10 km tai enemmän
Muutamia pilviä 1000 ft:n korkeudessa
Hajonneita pilviä 2000 ft:n korkeudessa
Todennäköisyys 30% :
Ajoittain
21. päivästä klo 13 UTC - 21. päivään klo 18 UTC
Tuuli 15 kn eri suunnista puuskistuen 25 kn:hen
Näkyvyys: 4000 m
ukkosmyrsky, sadetta

TAF: FMMI 202300Z 2100/2206 08006KT 9999 FEW010 BKN020 PROB30 TEMPO 2113/2118 VRB15G25KT 4000 TSRA

Säähavainnot ja -ennusteet yli 4000 lentoasemalta (METAR- ja TAF-raportit).

Käytössä olevat sääasemat on merkitty karttaan keltaisilla ja punaisilla pisteillä.

Aseta hiiri pisteen päälle nähdäksesi sääaseman nimen.

Klikkaa sitten nähdäksesi säähavainnot ja -ennusteet.

Kartan vaihtaminen: klikkaa mustalla rastilla varustettuja vihreitä pisteitä, niin voit zoomata sisään; viivalla varustettua vihreää pistettä, niin voit zoomata ulos tai vihreitä nuolia, niin pääset viereisille kartoille.


METAR-TAF: